sensor_id;sensor_type;location;lat;lon;timestamp;pressure;altitude;pressure_sealevel;temperature;humidity
64698;BME280;51124;53.394;-6.294;2023-07-30T00:00:41;99773.37;;;20.72;10.98
64698;BME280;51124;53.394;-6.294;2023-07-30T00:03:14;99771.29;;;21.63;10.96
64698;BME280;51124;53.394;-6.294;2023-07-30T00:05:55;99777.05;;;20.93;10.97
64698;BME280;51124;53.394;-6.294;2023-07-30T00:08:23;99777.40;;;21.24;11.15
64698;BME280;51124;53.394;-6.294;2023-07-30T00:10:50;99778.25;;;21.44;10.84
64698;BME280;51124;53.394;-6.294;2023-07-30T00:13:18;99773.42;;;20.90;10.98
64698;BME280;51124;53.394;-6.294;2023-07-30T00:15:47;99772.97;;;21.53;10.90
64698;BME280;51124;53.394;-6.294;2023-07-30T00:18:15;99771.62;;;21.07;10.90
64698;BME280;51124;53.394;-6.294;2023-07-30T00:20:43;99773.97;;;23.59;11.08
64698;BME280;51124;53.394;-6.294;2023-07-30T00:23:11;99782.28;;;23.26;11.70
64698;BME280;51124;53.394;-6.294;2023-07-30T00:25:38;99780.75;;;21.67;11.81
64698;BME280;51124;53.394;-6.294;2023-07-30T00:28:05;99787.22;;;21.21;11.81
64698;BME280;51124;53.394;-6.294;2023-07-30T00:30:33;99783.70;;;24.62;12.05
64698;BME280;51124;53.394;-6.294;2023-07-30T00:33:00;99794.17;;;23.28;12.59
64698;BME280;51124;53.394;-6.294;2023-07-30T00:35:28;99798.83;;;23.60;12.75
64698;BME280;51124;53.394;-6.294;2023-07-30T00:37:55;99801.51;;;23.54;13.03
64698;BME280;51124;53.394;-6.294;2023-07-30T00:40:23;99802.61;;;22.99;13.12
64698;BME280;51124;53.394;-6.294;2023-07-30T00:42:50;99793.12;;;24.21;13.08
64698;BME280;51124;53.394;-6.294;2023-07-30T00:45:18;99792.95;;;23.07;13.20
64698;BME280;51124;53.394;-6.294;2023-07-30T00:47:45;99800.28;;;23.49;13.12
64698;BME280;51124;53.394;-6.294;2023-07-30T00:50:15;99797.19;;;23.31;13.52
64698;BME280;51124;53.394;-6.294;2023-07-30T00:52:44;99799.45;;;22.73;13.61
64698;BME280;51124;53.394;-6.294;2023-07-30T00:55:13;99802.08;;;22.96;13.53
64698;BME280;51124;53.394;-6.294;2023-07-30T00:57:42;99803.88;;;22.75;13.42
64698;BME280;51124;53.394;-6.294;2023-07-30T01:00:10;99803.53;;;23.23;13.58
64698;BME280;51124;53.394;-6.294;2023-07-30T01:02:38;99807.47;;;23.23;13.41
64698;BME280;51124;53.394;-6.294;2023-07-30T01:05:06;99811.27;;;22.72;13.61
64698;BME280;51124;53.394;-6.294;2023-07-30T01:07:34;99810.93;;;23.26;13.61
64698;BME280;51124;53.394;-6.294;2023-07-30T01:10:02;99819.63;;;22.91;13.58
64698;BME280;51124;53.394;-6.294;2023-07-30T01:12:31;99823.95;;;22.56;13.65
64698;BME280;51124;53.394;-6.294;2023-07-30T01:15:01;99820.59;;;23.13;13.60
64698;BME280;51124;53.394;-6.294;2023-07-30T01:17:28;99818.75;;;23.18;13.55
64698;BME280;51124;53.394;-6.294;2023-07-30T01:19:56;99815.97;;;21.81;13.51
64698;BME280;51124;53.394;-6.294;2023-07-30T01:22:23;99819.67;;;20.98;13.14
64698;BME280;51124;53.394;-6.294;2023-07-30T01:24:51;99808.45;;;20.35;12.79
64698;BME280;51124;53.394;-6.294;2023-07-30T01:27:22;99817.23;;;20.82;12.26
64698;BME280;51124;53.394;-6.294;2023-07-30T01:29:55;99815.39;;;21.12;12.04
64698;BME280;51124;53.394;-6.294;2023-07-30T01:32:27;99820.39;;;20.72;12.00
64698;BME280;51124;53.394;-6.294;2023-07-30T01:34:57;99820.12;;;20.53;11.91
64698;BME280;51124;53.394;-6.294;2023-07-30T01:37:25;99825.59;;;20.86;11.77
64698;BME280;51124;53.394;-6.294;2023-07-30T01:39:53;99819.83;;;20.62;11.57
64698;BME280;51124;53.394;-6.294;2023-07-30T01:42:20;99821.33;;;21.29;11.31
64698;BME280;51124;53.394;-6.294;2023-07-30T01:44:48;99822.41;;;21.00;11.25
64698;BME280;51124;53.394;-6.294;2023-07-30T01:47:15;99825.89;;;20.90;11.48
64698;BME280;51124;53.394;-6.294;2023-07-30T01:49:42;99829.18;;;21.53;11.29
64698;BME280;51124;53.394;-6.294;2023-07-30T01:52:09;99823.76;;;21.22;11.27
64698;BME280;51124;53.394;-6.294;2023-07-30T01:54:36;99830.44;;;20.98;11.21
64698;BME280;51124;53.394;-6.294;2023-07-30T01:57:04;99830.15;;;21.38;11.13
64698;BME280;51124;53.394;-6.294;2023-07-30T01:59:31;99832.09;;;20.85;11.16
64698;BME280;51124;53.394;-6.294;2023-07-30T02:01:58;99833.60;;;20.76;11.06
64698;BME280;51124;53.394;-6.294;2023-07-30T02:04:26;99835.94;;;21.02;11.18
64698;BME280;51124;53.394;-6.294;2023-07-30T02:06:53;99836.27;;;21.35;11.08
64698;BME280;51124;53.394;-6.294;2023-07-30T02:09:20;99837.29;;;21.50;11.11
64698;BME280;51124;53.394;-6.294;2023-07-30T02:11:48;99839.83;;;20.67;11.17
64698;BME280;51124;53.394;-6.294;2023-07-30T02:14:15;99842.63;;;21.10;11.17
64698;BME280;51124;53.394;-6.294;2023-07-30T02:16:42;99840.60;;;25.01;11.03
64698;BME280;51124;53.394;-6.294;2023-07-30T02:19:10;99848.77;;;23.86;12.12
64698;BME280;51124;53.394;-6.294;2023-07-30T02:21:37;99855.64;;;22.40;12.48
64698;BME280;51124;53.394;-6.294;2023-07-30T02:24:04;99858.26;;;19.86;12.02
64698;BME280;51124;53.394;-6.294;2023-07-30T02:26:31;99857.30;;;20.21;11.55
64698;BME280;51124;53.394;-6.294;2023-07-30T02:28:59;99861.08;;;21.01;11.37
64698;BME280;51124;53.394;-6.294;2023-07-30T02:31:26;99861.24;;;20.64;11.41
64698;BME280;51124;53.394;-6.294;2023-07-30T02:33:53;99859.69;;;21.16;11.14
64698;BME280;51124;53.394;-6.294;2023-07-30T02:36:21;99860.46;;;21.00;11.07
64698;BME280;51124;53.394;-6.294;2023-07-30T02:38:48;99857.81;;;20.76;11.12
64698;BME280;51124;53.394;-6.294;2023-07-30T02:41:16;99857.25;;;20.77;11.03
64698;BME280;51124;53.394;-6.294;2023-07-30T02:43:43;99860.92;;;20.93;10.93
64698;BME280;51124;53.394;-6.294;2023-07-30T02:46:10;99861.09;;;20.29;11.04
64698;BME280;51124;53.394;-6.294;2023-07-30T02:48:38;99862.86;;;20.70;11.14
64698;BME280;51124;53.394;-6.294;2023-07-30T02:51:05;99864.62;;;21.01;11.07
64698;BME280;51124;53.394;-6.294;2023-07-30T02:53:32;99867.28;;;20.46;11.18
64698;BME280;51124;53.394;-6.294;2023-07-30T02:55:59;99863.57;;;20.69;11.17
64698;BME280;51124;53.394;-6.294;2023-07-30T02:58:27;99865.69;;;20.96;11.10
64698;BME280;51124;53.394;-6.294;2023-07-30T03:00:54;99859.60;;;21.18;11.09
64698;BME280;51124;53.394;-6.294;2023-07-30T03:03:21;99861.73;;;21.00;11.27
64698;BME280;51124;53.394;-6.294;2023-07-30T03:05:48;99859.44;;;20.91;11.17
64698;BME280;51124;53.394;-6.294;2023-07-30T03:08:16;99852.87;;;21.52;11.15
64698;BME280;51124;53.394;-6.294;2023-07-30T03:10:43;99850.45;;;20.11;11.31
64698;BME280;51124;53.394;-6.294;2023-07-30T03:13:10;99853.04;;;20.55;11.15
64698;BME280;51124;53.394;-6.294;2023-07-30T03:15:38;99855.98;;;20.35;10.98
64698;BME280;51124;53.394;-6.294;2023-07-30T03:18:05;99854.00;;;21.15;10.87
64698;BME280;51124;53.394;-6.294;2023-07-30T03:20:32;99852.07;;;20.74;10.96
64698;BME280;51124;53.394;-6.294;2023-07-30T03:22:59;99852.59;;;20.86;11.12
64698;BME280;51124;53.394;-6.294;2023-07-30T03:25:27;99862.60;;;22.84;11.27
64698;BME280;51124;53.394;-6.294;2023-07-30T03:27:54;99864.27;;;23.13;11.63
64698;BME280;51124;53.394;-6.294;2023-07-30T03:30:21;99867.62;;;21.90;12.04
64698;BME280;51124;53.394;-6.294;2023-07-30T03:32:48;99868.66;;;20.69;12.08
64698;BME280;51124;53.394;-6.294;2023-07-30T03:35:16;99871.70;;;24.05;11.97
64698;BME280;51124;53.394;-6.294;2023-07-30T03:37:44;99880.36;;;24.41;12.62
64698;BME280;51124;53.394;-6.294;2023-07-30T03:40:12;99881.86;;;23.32;12.94
64698;BME280;51124;53.394;-6.294;2023-07-30T03:42:39;99885.24;;;23.36;13.18
64698;BME280;51124;53.394;-6.294;2023-07-30T03:45:07;99884.00;;;22.57;13.31
64698;BME280;51124;53.394;-6.294;2023-07-30T03:47:35;99886.36;;;22.79;13.54
64698;BME280;51124;53.394;-6.294;2023-07-30T03:50:03;99882.49;;;22.59;13.56
64698;BME280;51124;53.394;-6.294;2023-07-30T03:52:30;99881.24;;;22.25;13.52
64698;BME280;51124;53.394;-6.294;2023-07-30T03:54:57;99885.97;;;22.99;13.46
64698;BME280;51124;53.394;-6.294;2023-07-30T03:57:25;99883.72;;;22.79;13.69
64698;BME280;51124;53.394;-6.294;2023-07-30T03:59:52;99885.56;;;22.58;13.63
64698;BME280;51124;53.394;-6.294;2023-07-30T04:02:20;99888.74;;;22.51;13.65
64698;BME280;51124;53.394;-6.294;2023-07-30T04:04:48;99889.68;;;22.82;13.62
64698;BME280;51124;53.394;-6.294;2023-07-30T04:07:15;99897.22;;;22.64;13.81
64698;BME280;51124;53.394;-6.294;2023-07-30T04:09:43;99897.57;;;22.49;13.88
64698;BME280;51124;53.394;-6.294;2023-07-30T04:12:10;99894.77;;;22.50;13.81
64698;BME280;51124;53.394;-6.294;2023-07-30T04:14:38;99893.12;;;22.33;13.73
64698;BME280;51124;53.394;-6.294;2023-07-30T04:17:06;99891.87;;;22.63;13.67
64698;BME280;51124;53.394;-6.294;2023-07-30T04:19:33;99898.98;;;21.52;13.86
64698;BME280;51124;53.394;-6.294;2023-07-30T04:22:01;99896.01;;;20.72;13.39
64698;BME280;51124;53.394;-6.294;2023-07-30T04:24:28;99900.05;;;20.10;12.99
64698;BME280;51124;53.394;-6.294;2023-07-30T04:26:55;99903.23;;;20.99;12.61
64698;BME280;51124;53.394;-6.294;2023-07-30T04:29:22;99904.82;;;20.11;12.35
64698;BME280;51124;53.394;-6.294;2023-07-30T04:31:49;99898.25;;;20.38;12.03
64698;BME280;51124;53.394;-6.294;2023-07-30T04:34:16;99900.24;;;20.17;11.88
64698;BME280;51124;53.394;-6.294;2023-07-30T04:36:44;99903.70;;;20.03;11.71
64698;BME280;51124;53.394;-6.294;2023-07-30T04:39:11;99900.27;;;21.20;11.45
64698;BME280;51124;53.394;-6.294;2023-07-30T04:41:39;99911.01;;;19.77;11.74
64698;BME280;51124;53.394;-6.294;2023-07-30T04:44:06;99906.86;;;20.23;11.45
64698;BME280;51124;53.394;-6.294;2023-07-30T04:46:33;99906.50;;;21.17;11.44
64698;BME280;51124;53.394;-6.294;2023-07-30T04:49:01;99908.51;;;20.63;11.37
64698;BME280;51124;53.394;-6.294;2023-07-30T04:51:28;99914.29;;;20.60;11.27
64698;BME280;51124;53.394;-6.294;2023-07-30T04:53:55;99915.72;;;21.02;11.19
64698;BME280;51124;53.394;-6.294;2023-07-30T04:56:23;99923.74;;;20.78;11.19
64698;BME280;51124;53.394;-6.294;2023-07-30T04:58:50;99920.87;;;20.96;11.08
64698;BME280;51124;53.394;-6.294;2023-07-30T05:01:17;99925.33;;;20.42;11.26
64698;BME280;51124;53.394;-6.294;2023-07-30T05:03:44;99921.13;;;21.23;10.98
64698;BME280;51124;53.394;-6.294;2023-07-30T05:06:12;99924.60;;;19.93;11.21
64698;BME280;51124;53.394;-6.294;2023-07-30T05:08:39;99927.06;;;20.57;11.18
64698;BME280;51124;53.394;-6.294;2023-07-30T05:11:06;99928.32;;;19.91;11.21
64698;BME280;51124;53.394;-6.294;2023-07-30T05:13:34;99931.72;;;20.71;11.19
64698;BME280;51124;53.394;-6.294;2023-07-30T05:16:01;99938.50;;;20.78;11.03
64698;BME280;51124;53.394;-6.294;2023-07-30T05:18:29;99938.90;;;19.92;11.18
64698;BME280;51124;53.394;-6.294;2023-07-30T05:20:56;99932.85;;;20.42;11.14
64698;BME280;51124;53.394;-6.294;2023-07-30T05:23:23;99933.03;;;20.56;11.17
64698;BME280;51124;53.394;-6.294;2023-07-30T05:25:51;99935.45;;;19.81;11.18
64698;BME280;51124;53.394;-6.294;2023-07-30T05:28:18;99933.90;;;20.53;10.97
64698;BME280;51124;53.394;-6.294;2023-07-30T05:30:45;99938.83;;;21.06;10.87
64698;BME280;51124;53.394;-6.294;2023-07-30T05:33:12;99945.84;;;20.99;10.99
64698;BME280;51124;53.394;-6.294;2023-07-30T05:35:40;99944.84;;;20.20;10.98
64698;BME280;51124;53.394;-6.294;2023-07-30T05:38:07;99944.16;;;20.28;11.22
64698;BME280;51124;53.394;-6.294;2023-07-30T05:40:35;99937.48;;;20.17;11.14
64698;BME280;51124;53.394;-6.294;2023-07-30T05:43:02;99937.64;;;20.88;11.06
64698;BME280;51124;53.394;-6.294;2023-07-30T05:45:30;99936.84;;;20.57;11.03
64698;BME280;51124;53.394;-6.294;2023-07-30T05:47:58;99946.01;;;20.38;11.07
64698;BME280;51124;53.394;-6.294;2023-07-30T05:50:25;99945.85;;;21.89;11.02
64698;BME280;51124;53.394;-6.294;2023-07-30T05:52:52;99947.00;;;20.88;10.98
64698;BME280;51124;53.394;-6.294;2023-07-30T05:55:20;99944.13;;;20.55;11.16
64698;BME280;51124;53.394;-6.294;2023-07-30T05:57:48;99942.20;;;21.35;10.92
64698;BME280;51124;53.394;-6.294;2023-07-30T06:00:11;99944.61;;;20.90;11.02
64698;BME280;51124;53.394;-6.294;2023-07-30T06:02:45;99950.28;;;20.98;11.19
64698;BME280;51124;53.394;-6.294;2023-07-30T06:05:18;99956.71;;;20.43;11.28
64698;BME280;51124;53.394;-6.294;2023-07-30T06:07:51;99957.23;;;21.40;10.75
64698;BME280;51124;53.394;-6.294;2023-07-30T06:10:25;99959.58;;;20.75;11.05
64698;BME280;51124;53.394;-6.294;2023-07-30T06:12:58;99950.89;;;20.92;10.92
64698;BME280;51124;53.394;-6.294;2023-07-30T06:15:32;99960.51;;;20.21;11.08
64698;BME280;51124;53.394;-6.294;2023-07-30T06:18:08;99960.40;;;21.17;11.06
64698;BME280;51124;53.394;-6.294;2023-07-30T06:20:33;99963.14;;;23.07;11.40
64698;BME280;51124;53.394;-6.294;2023-07-30T06:22:59;99967.24;;;22.04;12.07
64698;BME280;51124;53.394;-6.294;2023-07-30T06:25:24;99963.69;;;21.53;11.72
64698;BME280;51124;53.394;-6.294;2023-07-30T06:27:47;99969.36;;;23.44;11.84
64698;BME280;51124;53.394;-6.294;2023-07-30T06:30:21;99971.75;;;23.73;12.33
64698;BME280;51124;53.394;-6.294;2023-07-30T06:32:54;99972.12;;;23.37;12.78
64698;BME280;51124;53.394;-6.294;2023-07-30T06:35:28;99973.36;;;22.85;13.01
64698;BME280;51124;53.394;-6.294;2023-07-30T06:38:02;99974.13;;;22.91;13.20
64698;BME280;51124;53.394;-6.294;2023-07-30T06:40:35;99978.97;;;22.31;13.47
64698;BME280;51124;53.394;-6.294;2023-07-30T06:43:09;99974.53;;;21.74;13.59
64698;BME280;51124;53.394;-6.294;2023-07-30T06:45:42;99976.00;;;22.79;13.52
64698;BME280;51124;53.394;-6.294;2023-07-30T06:48:18;99971.35;;;22.48;13.47
64698;BME280;51124;53.394;-6.294;2023-07-30T06:50:41;99973.39;;;22.51;13.72
64698;BME280;51124;53.394;-6.294;2023-07-30T06:53:15;99977.16;;;22.39;13.71
64698;BME280;51124;53.394;-6.294;2023-07-30T06:55:49;99973.73;;;22.22;13.64
64698;BME280;51124;53.394;-6.294;2023-07-30T06:58:22;99969.62;;;21.98;13.76
64698;BME280;51124;53.394;-6.294;2023-07-30T07:00:56;99971.24;;;22.27;13.89
64698;BME280;51124;53.394;-6.294;2023-07-30T07:03:30;99974.85;;;22.65;13.79
64698;BME280;51124;53.394;-6.294;2023-07-30T07:06:03;99981.11;;;22.07;13.77
64698;BME280;51124;53.394;-6.294;2023-07-30T07:08:37;99987.46;;;22.48;13.58
64698;BME280;51124;53.394;-6.294;2023-07-30T07:11:11;99989.10;;;22.78;13.72
64698;BME280;51124;53.394;-6.294;2023-07-30T07:13:45;99991.37;;;22.68;13.54
64698;BME280;51124;53.394;-6.294;2023-07-30T07:16:18;99997.05;;;22.87;13.57
64698;BME280;51124;53.394;-6.294;2023-07-30T07:18:52;99992.74;;;20.80;13.74
64698;BME280;51124;53.394;-6.294;2023-07-30T07:21:28;100003.29;;;20.23;13.17
64698;BME280;51124;53.394;-6.294;2023-07-30T07:23:51;100000.99;;;20.30;12.61
64698;BME280;51124;53.394;-6.294;2023-07-30T07:26:24;99992.95;;;20.37;12.15
64698;BME280;51124;53.394;-6.294;2023-07-30T07:28:58;99991.36;;;21.45;12.07
64698;BME280;51124;53.394;-6.294;2023-07-30T07:31:31;99990.48;;;20.23;11.99
64698;BME280;51124;53.394;-6.294;2023-07-30T07:34:04;99993.49;;;19.80;11.91
64698;BME280;51124;53.394;-6.294;2023-07-30T07:36:38;99996.22;;;20.84;11.57
64698;BME280;51124;53.394;-6.294;2023-07-30T07:39:11;100005.68;;;20.53;11.55
64698;BME280;51124;53.394;-6.294;2023-07-30T07:41:44;100007.88;;;21.76;11.34
64698;BME280;51124;53.394;-6.294;2023-07-30T07:44:18;100005.12;;;20.53;11.48
64698;BME280;51124;53.394;-6.294;2023-07-30T07:46:51;100010.47;;;20.64;11.43
64698;BME280;51124;53.394;-6.294;2023-07-30T07:49:26;100017.67;;;21.21;11.06
64698;BME280;51124;53.394;-6.294;2023-07-30T07:51:52;100012.86;;;21.66;11.01
64698;BME280;51124;53.394;-6.294;2023-07-30T07:54:15;100012.31;;;20.82;11.06
64698;BME280;51124;53.394;-6.294;2023-07-30T07:56:52;100013.96;;;20.67;11.26
64698;BME280;51124;53.394;-6.294;2023-07-30T07:59:15;100014.15;;;21.39;11.10
64698;BME280;51124;53.394;-6.294;2023-07-30T08:01:49;100004.46;;;21.02;11.12
64698;BME280;51124;53.394;-6.294;2023-07-30T08:04:22;100006.76;;;20.69;11.13
64698;BME280;51124;53.394;-6.294;2023-07-30T08:06:56;100007.98;;;20.78;11.26
64698;BME280;51124;53.394;-6.294;2023-07-30T08:09:29;100007.88;;;20.95;11.21
64698;BME280;51124;53.394;-6.294;2023-07-30T08:12:03;100007.10;;;21.53;11.00
64698;BME280;51124;53.394;-6.294;2023-07-30T08:14:37;100007.49;;;21.56;11.02
64698;BME280;51124;53.394;-6.294;2023-07-30T08:17:10;100015.90;;;20.81;11.08
64698;BME280;51124;53.394;-6.294;2023-07-30T08:19:43;100010.65;;;21.43;10.74
64698;BME280;51124;53.394;-6.294;2023-07-30T08:22:17;100008.47;;;21.47;10.82
64698;BME280;51124;53.394;-6.294;2023-07-30T08:24:50;100011.78;;;22.03;10.72
64698;BME280;51124;53.394;-6.294;2023-07-30T08:27:24;100000.60;;;21.69;10.62
64698;BME280;51124;53.394;-6.294;2023-07-30T08:29:57;100009.73;;;21.14;10.71
64698;BME280;51124;53.394;-6.294;2023-07-30T08:32:32;100008.52;;;21.43;10.78
64698;BME280;51124;53.394;-6.294;2023-07-30T08:34:56;100012.70;;;21.44;10.79
64698;BME280;51124;53.394;-6.294;2023-07-30T08:37:29;100018.34;;;22.01;10.64
64698;BME280;51124;53.394;-6.294;2023-07-30T08:40:03;100014.99;;;21.15;10.66
64698;BME280;51124;53.394;-6.294;2023-07-30T08:42:37;100029.62;;;21.91;10.72
64698;BME280;51124;53.394;-6.294;2023-07-30T08:45:10;100018.68;;;21.66;10.66
64698;BME280;51124;53.394;-6.294;2023-07-30T08:47:45;100017.85;;;22.00;10.70
64698;BME280;51124;53.394;-6.294;2023-07-30T08:50:19;100016.37;;;22.41;10.86
64698;BME280;51124;53.394;-6.294;2023-07-30T08:52:54;100015.58;;;21.84;10.83
64698;BME280;51124;53.394;-6.294;2023-07-30T08:55:18;100011.91;;;21.48;10.76
64698;BME280;51124;53.394;-6.294;2023-07-30T08:57:53;100010.97;;;20.82;10.90
64698;BME280;51124;53.394;-6.294;2023-07-30T09:00:30;100016.42;;;21.92;10.72
64698;BME280;51124;53.394;-6.294;2023-07-30T09:02:56;100013.97;;;22.97;10.65
64698;BME280;51124;53.394;-6.294;2023-07-30T09:05:21;100018.24;;;22.21;10.55
64698;BME280;51124;53.394;-6.294;2023-07-30T09:07:55;100015.32;;;21.95;10.60
64698;BME280;51124;53.394;-6.294;2023-07-30T09:10:28;100016.10;;;21.35;10.68
64698;BME280;51124;53.394;-6.294;2023-07-30T09:13:02;100019.74;;;21.33;10.66
64698;BME280;51124;53.394;-6.294;2023-07-30T09:15:37;100021.33;;;22.02;10.48
64698;BME280;51124;53.394;-6.294;2023-07-30T09:18:11;100023.74;;;22.05;10.62
64698;BME280;51124;53.394;-6.294;2023-07-30T09:20:44;100030.17;;;23.84;11.13
64698;BME280;51124;53.394;-6.294;2023-07-30T09:23:17;100030.88;;;24.00;11.36
64698;BME280;51124;53.394;-6.294;2023-07-30T09:25:51;100030.83;;;21.71;11.52
64698;BME280;51124;53.394;-6.294;2023-07-30T09:28:30;100038.25;;;25.10;11.46
64698;BME280;51124;53.394;-6.294;2023-07-30T09:31:00;100034.07;;;24.13;12.16
64698;BME280;51124;53.394;-6.294;2023-07-30T09:33:23;100037.71;;;24.25;12.54
64698;BME280;51124;53.394;-6.294;2023-07-30T09:35:56;100043.25;;;23.64;12.80
64698;BME280;51124;53.394;-6.294;2023-07-30T09:38:30;100043.93;;;24.39;12.80
64698;BME280;51124;53.394;-6.294;2023-07-30T09:41:04;100039.73;;;23.92;12.92
64698;BME280;51124;53.394;-6.294;2023-07-30T09:43:37;100040.45;;;23.82;13.09
64698;BME280;51124;53.394;-6.294;2023-07-30T09:46:11;100042.77;;;23.70;13.13
64698;BME280;51124;53.394;-6.294;2023-07-30T09:48:44;100038.02;;;23.58;13.15
64698;BME280;51124;53.394;-6.294;2023-07-30T09:51:20;100041.56;;;23.49;13.30
64698;BME280;51124;53.394;-6.294;2023-07-30T09:53:53;100040.64;;;23.55;13.27
64698;BME280;51124;53.394;-6.294;2023-07-30T09:56:27;100039.66;;;23.24;13.34
64698;BME280;51124;53.394;-6.294;2023-07-30T09:59:01;100043.29;;;23.94;13.23
64698;BME280;51124;53.394;-6.294;2023-07-30T10:01:37;100040.70;;;22.71;13.34
64698;BME280;51124;53.394;-6.294;2023-07-30T10:04:05;100044.35;;;23.62;13.15
64698;BME280;51124;53.394;-6.294;2023-07-30T10:06:31;100042.13;;;23.92;13.27
64698;BME280;51124;53.394;-6.294;2023-07-30T10:08:56;100047.81;;;23.32;13.27
64698;BME280;51124;53.394;-6.294;2023-07-30T10:11:21;100043.50;;;23.48;13.29
64698;BME280;51124;53.394;-6.294;2023-07-30T10:13:56;100044.08;;;23.49;13.36
64698;BME280;51124;53.394;-6.294;2023-07-30T10:16:30;100046.49;;;22.80;13.39
64698;BME280;51124;53.394;-6.294;2023-07-30T10:19:03;100046.03;;;22.13;13.21
64698;BME280;51124;53.394;-6.294;2023-07-30T10:21:42;100051.26;;;21.98;12.65
64698;BME280;51124;53.394;-6.294;2023-07-30T10:24:07;100047.69;;;21.27;12.37
64698;BME280;51124;53.394;-6.294;2023-07-30T10:26:32;100046.66;;;20.89;11.93
64698;BME280;51124;53.394;-6.294;2023-07-30T10:29:15;100049.85;;;22.45;11.86
64698;BME280;51124;53.394;-6.294;2023-07-30T10:31:38;100045.26;;;21.62;11.86
64698;BME280;51124;53.394;-6.294;2023-07-30T10:34:06;100041.39;;;21.91;11.48
64698;BME280;51124;53.394;-6.294;2023-07-30T10:36:31;100042.73;;;21.79;11.45
64698;BME280;51124;53.394;-6.294;2023-07-30T10:39:11;100039.90;;;20.51;11.47
64698;BME280;51124;53.394;-6.294;2023-07-30T10:41:37;100040.61;;;21.75;11.12
64698;BME280;51124;53.394;-6.294;2023-07-30T10:44:00;100038.32;;;21.80;11.03
64698;BME280;51124;53.394;-6.294;2023-07-30T10:46:34;100036.64;;;22.23;10.84
64698;BME280;51124;53.394;-6.294;2023-07-30T10:49:09;100034.81;;;21.92;10.77
64698;BME280;51124;53.394;-6.294;2023-07-30T10:51:33;100033.85;;;21.72;10.86
64698;BME280;51124;53.394;-6.294;2023-07-30T10:54:07;100033.99;;;21.79;10.80
64698;BME280;51124;53.394;-6.294;2023-07-30T10:56:40;100034.57;;;21.95;10.69
64698;BME280;51124;53.394;-6.294;2023-07-30T10:59:14;100029.07;;;22.46;10.57
64698;BME280;51124;53.394;-6.294;2023-07-30T11:01:48;100030.01;;;21.03;10.80
64698;BME280;51124;53.394;-6.294;2023-07-30T11:04:22;100025.16;;;20.40;10.98
64698;BME280;51124;53.394;-6.294;2023-07-30T11:06:55;100028.36;;;21.49;10.73
64698;BME280;51124;53.394;-6.294;2023-07-30T11:09:29;100030.28;;;21.88;10.45
64698;BME280;51124;53.394;-6.294;2023-07-30T11:12:03;100027.36;;;21.41;10.67
64698;BME280;51124;53.394;-6.294;2023-07-30T11:14:36;100031.21;;;21.45;10.51
64698;BME280;51124;53.394;-6.294;2023-07-30T11:17:10;100031.80;;;21.62;10.41
64698;BME280;51124;53.394;-6.294;2023-07-30T11:19:43;100026.45;;;22.13;10.41
64698;BME280;51124;53.394;-6.294;2023-07-30T11:22:29;100029.54;;;21.80;10.43
64698;BME280;51124;53.394;-6.294;2023-07-30T11:24:42;100024.45;;;21.01;10.59
64698;BME280;51124;53.394;-6.294;2023-07-30T11:27:15;100027.25;;;21.80;10.49
64698;BME280;51124;53.394;-6.294;2023-07-30T11:29:54;100024.34;;;21.26;10.57
64698;BME280;51124;53.394;-6.294;2023-07-30T11:32:18;100019.97;;;21.55;10.56
64698;BME280;51124;53.394;-6.294;2023-07-30T11:34:52;100014.44;;;21.62;10.43
64698;BME280;51124;53.394;-6.294;2023-07-30T11:37:25;100013.48;;;22.21;10.16
64698;BME280;51124;53.394;-6.294;2023-07-30T11:39:59;100018.41;;;21.98;10.49
64698;BME280;51124;53.394;-6.294;2023-07-30T11:42:33;100023.22;;;21.83;10.43
64698;BME280;51124;53.394;-6.294;2023-07-30T11:45:23;100018.55;;;21.47;10.54
64698;BME280;51124;53.394;-6.294;2023-07-30T11:47:36;100021.24;;;22.25;10.13
64698;BME280;51124;53.394;-6.294;2023-07-30T11:50:10;100021.62;;;22.39;10.40
64698;BME280;51124;53.394;-6.294;2023-07-30T11:52:52;100018.37;;;21.56;10.53
64698;BME280;51124;53.394;-6.294;2023-07-30T11:55:15;100017.96;;;22.15;10.45
64698;BME280;51124;53.394;-6.294;2023-07-30T11:57:49;100013.88;;;22.50;10.37
64698;BME280;51124;53.394;-6.294;2023-07-30T12:00:23;100012.78;;;21.09;10.70
64698;BME280;51124;53.394;-6.294;2023-07-30T12:02:56;100018.74;;;20.88;10.72
64698;BME280;51124;53.394;-6.294;2023-07-30T12:05:31;100018.67;;;21.67;10.55
64698;BME280;51124;53.394;-6.294;2023-07-30T12:07:55;100012.37;;;23.09;10.23
64698;BME280;51124;53.394;-6.294;2023-07-30T12:10:28;100011.64;;;22.61;10.22
64698;BME280;51124;53.394;-6.294;2023-07-30T12:12:53;100011.65;;;20.76;10.65
64698;BME280;51124;53.394;-6.294;2023-07-30T12:15:29;100008.43;;;21.56;10.30
64698;BME280;51124;53.394;-6.294;2023-07-30T12:17:52;100010.43;;;21.02;10.63
64698;BME280;51124;53.394;-6.294;2023-07-30T12:20:27;100012.93;;;23.25;10.58
64698;BME280;51124;53.394;-6.294;2023-07-30T12:23:01;100013.06;;;23.94;11.06
64698;BME280;51124;53.394;-6.294;2023-07-30T12:25:35;100014.64;;;22.68;11.34
64698;BME280;51124;53.394;-6.294;2023-07-30T12:28:09;100008.72;;;24.05;10.99
64698;BME280;51124;53.394;-6.294;2023-07-30T12:30:43;100013.82;;;25.38;11.44
64698;BME280;51124;53.394;-6.294;2023-07-30T12:33:17;100022.16;;;24.17;12.02
64698;BME280;51124;53.394;-6.294;2023-07-30T12:35:53;100016.06;;;24.98;12.02
64698;BME280;51124;53.394;-6.294;2023-07-30T12:38:17;100020.79;;;24.21;12.47
64698;BME280;51124;53.394;-6.294;2023-07-30T12:40:51;100023.06;;;23.11;13.10
64698;BME280;51124;53.394;-6.294;2023-07-30T12:43:30;100023.49;;;23.57;12.75
64698;BME280;51124;53.394;-6.294;2023-07-30T12:45:54;100019.20;;;22.99;13.09
64698;BME280;51124;53.394;-6.294;2023-07-30T12:48:28;100014.86;;;23.34;13.03
64698;BME280;51124;53.394;-6.294;2023-07-30T12:51:02;100019.36;;;23.80;12.84
64698;BME280;51124;53.394;-6.294;2023-07-30T12:53:35;100020.70;;;23.27;13.14
64698;BME280;51124;53.394;-6.294;2023-07-30T12:56:09;100016.92;;;23.40;13.15
64698;BME280;51124;53.394;-6.294;2023-07-30T12:58:43;100020.51;;;23.59;12.91